KBJI/BJI METAR and TAF weather

Enter ICAO airport designator
Station Type Date Time Source
KBJI METAR 2021/09/16 10:15 UTC NOAA

KBJI 161015Z AUTO 17007KT 10SM CLR 16/15 A2969 RMK AO2 LTG DSNT E AND SE T01560146


Station Type Date Time Source
KBJI Decoded METAR 2021/09/16 10:15 UTC NOAA

Bemidji, MN, United States (KBJI) 47-30N 094-56W 420M
Sep 16, 2021 - 06:15 AM EDT / 2021.09.16 1015 UTC
Wind: from the S (170 degrees) at 8 MPH (7 KT):0
Visibility: 10 mile(s):0
Sky conditions: clear
Weather: Lightning observed
Temperature: 60.1 F (15.6 C)
Dew Point: 58.3 F (14.6 C)
Relative Humidity: 93%
Pressure (altimeter): 29.69 in. Hg (1005 hPa)
ob: KBJI 161015Z AUTO 17007KT 10SM CLR 16/15 A2969 RMK AO2 LTG DSNT E AND SE T01560146
cycle: 10

Station Type Date Time Source
KBJI TAF 2021/09/16 08:45 UTC NOAA

TAF
AMD KBJI 160743Z 1608/1706 32015G25KT P6SM -TSRA SCT030 BKN040CB
FM160900 20008KT P6SM SCT035
FM162000 31008KT 6SM TSRA BR BKN030CB
FM162300 34007KT P6SM BKN045
FM170200 31005KT P6SM FEW150

Example: see airport list